createdAt,value
2017-07-30T00:00:27.324Z,0
2017-07-30T00:01:08.217Z,0
2017-07-30T00:01:49.113Z,0
2017-07-30T00:02:30.011Z,0
2017-07-30T00:03:10.900Z,0
2017-07-30T00:03:51.802Z,0
2017-07-30T00:04:32.705Z,0
2017-07-30T00:05:13.611Z,0
2017-07-30T00:05:54.503Z,0
2017-07-30T00:06:35.405Z,0
2017-07-30T00:07:16.301Z,0
2017-07-30T00:07:57.198Z,0
2017-07-30T00:08:38.092Z,0
2017-07-30T00:09:18.994Z,0
2017-07-30T00:09:59.881Z,0
2017-07-30T00:10:40.773Z,0
2017-07-30T00:11:21.666Z,0
2017-07-30T00:12:02.554Z,0
2017-07-30T00:12:43.453Z,0
2017-07-30T00:13:24.344Z,0
2017-07-30T00:14:05.237Z,0
2017-07-30T00:14:46.143Z,0
2017-07-30T00:15:27.038Z,0
2017-07-30T00:16:07.931Z,0
2017-07-30T00:16:48.821Z,0
2017-07-30T00:17:29.719Z,0
2017-07-30T00:18:10.611Z,0
2017-07-30T00:18:51.512Z,0
2017-07-30T00:19:32.406Z,0
2017-07-30T00:20:13.303Z,0
2017-07-30T00:20:54.194Z,0
2017-07-30T00:21:35.084Z,0
2017-07-30T00:22:15.981Z,0
2017-07-30T00:22:56.891Z,0
2017-07-30T00:23:37.784Z,0
2017-07-30T00:24:18.672Z,0
2017-07-30T00:24:59.569Z,0
2017-07-30T00:25:40.459Z,0
2017-07-30T00:26:21.363Z,0
2017-07-30T00:27:02.261Z,0
2017-07-30T00:27:43.159Z,0
2017-07-30T00:28:24.058Z,0
2017-07-30T00:29:04.947Z,0
2017-07-30T00:29:45.835Z,0
2017-07-30T00:30:26.733Z,0
2017-07-30T00:31:07.622Z,0
2017-07-30T00:31:48.522Z,0
2017-07-30T00:32:29.409Z,0
2017-07-30T00:33:10.303Z,0
2017-07-30T00:33:51.205Z,0
2017-07-30T00:34:32.097Z,0
2017-07-30T00:35:12.994Z,0
2017-07-30T00:35:53.887Z,0
2017-07-30T00:36:34.776Z,0
2017-07-30T00:37:15.659Z,0
2017-07-30T00:37:56.559Z,0
2017-07-30T00:38:37.446Z,0
2017-07-30T00:39:18.352Z,0
2017-07-30T00:39:59.245Z,0
2017-07-30T00:40:40.136Z,0
2017-07-30T00:41:21.029Z,0
2017-07-30T00:42:01.929Z,0
2017-07-30T00:42:42.821Z,0
2017-07-30T00:43:23.727Z,0
2017-07-30T00:44:04.625Z,0
2017-07-30T00:44:45.547Z,0
2017-07-30T00:45:26.449Z,0
2017-07-30T00:46:07.339Z,0
2017-07-30T00:46:48.242Z,0
2017-07-30T00:47:29.131Z,0
2017-07-30T00:48:10.040Z,0
2017-07-30T00:48:50.922Z,0
2017-07-30T00:49:31.809Z,0
2017-07-30T00:50:12.717Z,0
2017-07-30T00:50:53.615Z,0
2017-07-30T00:51:34.509Z,0
2017-07-30T00:52:15.408Z,0
2017-07-30T00:52:56.299Z,0
2017-07-30T00:53:37.194Z,0
2017-07-30T00:55:56.141Z,0
2017-07-30T00:56:37.051Z,0
2017-07-30T00:57:17.942Z,0
2017-07-30T00:57:58.838Z,0
2017-07-30T00:58:39.731Z,0
2017-07-30T00:59:20.654Z,0
2017-07-30T01:00:01.546Z,0
2017-07-30T01:00:42.441Z,0
2017-07-30T01:01:23.339Z,0
2017-07-30T01:02:04.230Z,0
2017-07-30T01:02:45.122Z,0
2017-07-30T01:03:26.024Z,0
2017-07-30T01:04:06.920Z,0
2017-07-30T01:04:47.843Z,0
2017-07-30T01:05:28.717Z,0
2017-07-30T01:06:09.601Z,0
2017-07-30T01:06:50.509Z,0
2017-07-30T01:07:31.394Z,0
2017-07-30T01:08:12.292Z,0
2017-07-30T01:08:53.183Z,0
2017-07-30T01:09:34.073Z,0
2017-07-30T01:10:14.975Z,0
2017-07-30T01:10:55.867Z,0
2017-07-30T01:11:36.761Z,0
2017-07-30T01:12:17.654Z,0
2017-07-30T01:12:58.547Z,0
2017-07-30T01:13:39.437Z,0
2017-07-30T01:14:20.333Z,0
2017-07-30T01:15:01.231Z,0
2017-07-30T01:15:42.121Z,0
2017-07-30T01:16:23.021Z,0
2017-07-30T01:17:03.915Z,0
2017-07-30T01:17:44.827Z,0
2017-07-30T01:18:25.705Z,0
2017-07-30T01:19:06.599Z,0
2017-07-30T01:19:47.496Z,0
2017-07-30T01:20:28.383Z,0
2017-07-30T01:21:09.276Z,0
2017-07-30T01:21:50.172Z,0
2017-07-30T01:22:31.060Z,0
2017-07-30T01:23:11.952Z,0
2017-07-30T01:23:52.854Z,0
2017-07-30T01:24:33.732Z,0
2017-07-30T01:25:14.619Z,0
2017-07-30T01:25:55.509Z,0
2017-07-30T01:26:36.407Z,0
2017-07-30T01:27:17.295Z,0
2017-07-30T01:27:58.184Z,0
2017-07-30T01:28:39.085Z,0
2017-07-30T01:29:19.971Z,0
2017-07-30T01:30:00.922Z,0
2017-07-30T01:30:41.756Z,0
2017-07-30T01:31:22.644Z,0
2017-07-30T01:32:03.536Z,0
2017-07-30T01:32:44.435Z,0
2017-07-30T01:33:25.324Z,0
2017-07-30T01:34:06.226Z,0
2017-07-30T01:34:47.122Z,0
2017-07-30T01:35:28.015Z,0
2017-07-30T01:36:08.915Z,0
2017-07-30T01:36:49.812Z,0
2017-07-30T01:37:30.708Z,0
2017-07-30T01:38:11.624Z,0
2017-07-30T01:38:52.511Z,0
2017-07-30T01:39:33.398Z,0
2017-07-30T01:40:14.296Z,0
2017-07-30T01:40:55.182Z,0
2017-07-30T01:41:36.086Z,0
2017-07-30T01:42:16.974Z,0
2017-07-30T01:42:57.843Z,0
2017-07-30T01:43:38.745Z,0
2017-07-30T01:44:19.650Z,0
2017-07-30T01:45:00.537Z,0
2017-07-30T01:45:41.435Z,0
2017-07-30T01:46:22.324Z,0
2017-07-30T01:47:03.216Z,0
2017-07-30T01:47:44.113Z,0
2017-07-30T01:48:25.004Z,0
2017-07-30T01:49:05.904Z,0
2017-07-30T01:49:46.801Z,0
2017-07-30T01:50:27.695Z,0
2017-07-30T01:51:08.598Z,0
2017-07-30T01:51:49.499Z,0
2017-07-30T01:52:30.390Z,0
2017-07-30T01:53:11.284Z,0
2017-07-30T01:53:52.174Z,0
2017-07-30T01:54:33.060Z,0
2017-07-30T01:55:13.951Z,0
2017-07-30T01:55:54.850Z,0
2017-07-30T01:56:35.732Z,0
2017-07-30T01:57:16.627Z,0
2017-07-30T01:57:57.523Z,0
2017-07-30T01:58:38.415Z,0
2017-07-30T01:59:19.313Z,0
2017-07-30T02:00:00.209Z,0
2017-07-30T02:00:41.102Z,0
2017-07-30T02:01:22.000Z,0
2017-07-30T02:02:02.879Z,0
2017-07-30T02:02:43.785Z,0
2017-07-30T02:03:24.685Z,0
2017-07-30T02:04:05.569Z,0
2017-07-30T02:04:46.465Z,0
2017-07-30T02:05:27.362Z,0
2017-07-30T02:06:08.248Z,0
2017-07-30T02:06:49.140Z,0
2017-07-30T02:07:30.035Z,0
2017-07-30T02:08:10.924Z,0
2017-07-30T02:08:51.829Z,0
2017-07-30T02:09:32.721Z,0
2017-07-30T02:10:13.599Z,0
2017-07-30T02:10:54.488Z,0
2017-07-30T02:11:35.381Z,0
2017-07-30T02:12:16.261Z,0
2017-07-30T02:12:57.162Z,0
2017-07-30T02:13:38.055Z,0
2017-07-30T02:14:18.938Z,0
2017-07-30T02:14:59.815Z,0
2017-07-30T02:15:40.702Z,0
2017-07-30T02:16:21.590Z,0
2017-07-30T02:17:02.473Z,0
2017-07-30T02:17:43.362Z,0
2017-07-30T02:18:24.259Z,0
2017-07-30T02:19:05.146Z,0
2017-07-30T02:19:46.029Z,0
2017-07-30T02:20:26.963Z,0
2017-07-30T02:21:07.842Z,0
2017-07-30T02:21:48.732Z,0
2017-07-30T02:22:29.618Z,0
2017-07-30T02:23:10.518Z,0
2017-07-30T02:23:51.407Z,0
2017-07-30T02:24:32.315Z,0
2017-07-30T02:25:13.215Z,0
2017-07-30T02:25:54.109Z,0
2017-07-30T02:26:34.996Z,0
2017-07-30T02:27:15.896Z,0
2017-07-30T02:27:56.785Z,0
2017-07-30T02:28:37.681Z,0
2017-07-30T02:29:18.586Z,0
2017-07-30T02:29:59.488Z,0
2017-07-30T02:30:41.892Z,0
2017-07-30T02:31:22.782Z,0
2017-07-30T02:32:03.685Z,0
2017-07-30T02:32:44.570Z,0
2017-07-30T02:33:25.462Z,0
2017-07-30T02:34:06.362Z,0
2017-07-30T02:34:47.246Z,0
2017-07-30T02:35:28.140Z,0
2017-07-30T02:36:09.032Z,0
2017-07-30T02:36:49.924Z,0
2017-07-30T02:37:30.814Z,0
2017-07-30T02:38:11.717Z,0
2017-07-30T02:38:52.608Z,0
2017-07-30T02:39:33.528Z,0
2017-07-30T02:40:14.393Z,0
2017-07-30T02:40:55.280Z,0
2017-07-30T02:41:36.206Z,0
2017-07-30T02:42:17.067Z,0
2017-07-30T02:42:57.956Z,0
2017-07-30T02:43:38.857Z,0
2017-07-30T02:44:19.743Z,0
2017-07-30T02:45:00.627Z,0
2017-07-30T02:45:41.526Z,0
2017-07-30T02:46:22.431Z,0
2017-07-30T02:47:03.323Z,0
2017-07-30T02:47:44.217Z,0
2017-07-30T02:48:25.122Z,0
2017-07-30T02:49:06.018Z,0
2017-07-30T02:49:46.906Z,0
2017-07-30T02:50:27.798Z,0
2017-07-30T02:51:08.721Z,0
2017-07-30T02:51:49.588Z,0
2017-07-30T02:52:30.481Z,0
2017-07-30T02:53:11.371Z,0
2017-07-30T02:53:52.265Z,0
2017-07-30T02:54:33.158Z,0
2017-07-30T02:55:14.058Z,0
2017-07-30T02:55:54.950Z,0
2017-07-30T02:56:35.847Z,0
2017-07-30T02:57:16.741Z,0
2017-07-30T02:57:57.639Z,0
2017-07-30T02:58:38.529Z,0
2017-07-30T02:59:19.455Z,0
2017-07-30T03:00:00.325Z,0
2017-07-30T03:00:41.211Z,0
2017-07-30T03:01:22.097Z,0
2017-07-30T03:02:02.989Z,0
2017-07-30T03:02:43.883Z,0
2017-07-30T03:03:24.770Z,0
2017-07-30T03:04:05.664Z,0
2017-07-30T03:04:46.564Z,0
2017-07-30T03:05:27.463Z,0
2017-07-30T03:06:08.347Z,0
2017-07-30T03:06:49.244Z,0
2017-07-30T03:07:30.138Z,0
2017-07-30T03:08:11.037Z,0
2017-07-30T03:08:51.927Z,0
2017-07-30T03:09:32.823Z,0
2017-07-30T03:10:13.711Z,0
2017-07-30T03:10:54.615Z,0
2017-07-30T03:11:35.501Z,0
2017-07-30T03:12:16.391Z,0
2017-07-30T03:12:57.283Z,0
2017-07-30T03:13:38.178Z,0
2017-07-30T03:14:19.074Z,0
2017-07-30T03:14:59.967Z,0
2017-07-30T03:15:40.857Z,0
2017-07-30T03:16:21.751Z,0
2017-07-30T03:17:02.650Z,0
2017-07-30T03:17:43.548Z,0
2017-07-30T03:18:24.459Z,5
2017-07-30T03:19:05.336Z,5
2017-07-30T03:19:46.226Z,5
2017-07-30T03:20:27.122Z,5
2017-07-30T03:21:08.037Z,5
2017-07-30T03:21:48.901Z,5
2017-07-30T03:22:29.808Z,5
2017-07-30T03:23:10.687Z,5
2017-07-30T03:23:51.582Z,5
2017-07-30T03:24:32.473Z,5
2017-07-30T03:25:13.359Z,5
2017-07-30T03:25:54.256Z,5
2017-07-30T03:26:35.147Z,5
2017-07-30T03:27:16.034Z,5
2017-07-30T03:27:56.924Z,10
2017-07-30T03:28:37.819Z,10
2017-07-30T03:29:18.712Z,10
2017-07-30T03:29:59.597Z,10
2017-07-30T03:30:40.500Z,10
2017-07-30T03:31:21.408Z,10
2017-07-30T03:32:02.299Z,10
2017-07-30T03:32:43.202Z,10
2017-07-30T03:33:24.086Z,10
2017-07-30T03:34:04.975Z,15
2017-07-30T03:34:45.862Z,15
2017-07-30T03:35:26.761Z,15
2017-07-30T03:36:07.645Z,15
2017-07-30T03:36:48.544Z,15
2017-07-30T03:37:29.426Z,15
2017-07-30T03:38:10.310Z,20
2017-07-30T03:38:51.201Z,20
2017-07-30T03:39:32.090Z,20
2017-07-30T03:40:12.985Z,20
2017-07-30T03:40:53.876Z,20
2017-07-30T03:41:34.769Z,20
2017-07-30T03:42:15.673Z,20
2017-07-30T03:42:56.566Z,20
2017-07-30T03:43:37.452Z,20
2017-07-30T03:44:18.345Z,25
2017-07-30T03:44:59.241Z,25
2017-07-30T03:45:40.133Z,25
2017-07-30T03:46:21.023Z,25
2017-07-30T03:47:01.916Z,25
2017-07-30T03:47:42.815Z,25
2017-07-30T03:48:23.705Z,25
2017-07-30T03:49:04.601Z,25
2017-07-30T03:49:45.492Z,25
2017-07-30T03:50:26.379Z,25
2017-07-30T03:51:07.272Z,25
2017-07-30T03:51:48.163Z,25
2017-07-30T03:52:29.064Z,25
2017-07-30T03:53:09.951Z,25
2017-07-30T03:53:50.838Z,25
2017-07-30T03:54:31.731Z,30
2017-07-30T03:55:12.629Z,30
2017-07-30T03:55:53.526Z,30
2017-07-30T03:56:34.415Z,30
2017-07-30T03:57:15.308Z,30
2017-07-30T03:57:56.205Z,30
2017-07-30T03:58:37.120Z,30
2017-07-30T03:59:18.009Z,35
2017-07-30T03:59:58.910Z,35
2017-07-30T04:00:39.806Z,35
2017-07-30T04:01:20.696Z,35
2017-07-30T04:02:01.594Z,35
2017-07-30T04:02:42.485Z,35
2017-07-30T04:03:23.377Z,35
2017-07-30T04:04:04.267Z,40
2017-07-30T04:04:45.161Z,40
2017-07-30T04:05:26.049Z,40
2017-07-30T04:06:06.931Z,40
2017-07-30T04:06:47.822Z,40
2017-07-30T04:07:28.712Z,40
2017-07-30T04:08:09.596Z,45
2017-07-30T04:08:50.497Z,45
2017-07-30T04:09:31.389Z,45
2017-07-30T04:10:12.307Z,50
2017-07-30T04:10:53.184Z,50
2017-07-30T04:11:34.078Z,50
2017-07-30T04:12:15.029Z,50
2017-07-30T04:12:55.910Z,50
2017-07-30T04:13:36.803Z,50
2017-07-30T04:14:17.690Z,55
2017-07-30T04:16:26.722Z,60
2017-07-30T04:17:07.608Z,60
2017-07-30T04:17:48.497Z,60
2017-07-30T04:18:29.396Z,65
2017-07-30T04:19:10.285Z,70
2017-07-30T04:19:51.177Z,70
2017-07-30T04:20:32.068Z,70
2017-07-30T04:21:12.960Z,70
2017-07-30T04:21:53.846Z,70
2017-07-30T04:22:34.732Z,70
2017-07-30T04:23:15.618Z,70
2017-07-30T04:23:56.506Z,70
2017-07-30T04:24:37.411Z,70
2017-07-30T04:25:18.316Z,75
2017-07-30T04:25:59.193Z,80
2017-07-30T04:26:40.085Z,85
2017-07-30T04:27:20.977Z,85
2017-07-30T04:28:01.891Z,80
2017-07-30T04:28:42.778Z,85
2017-07-30T04:29:23.664Z,90
2017-07-30T04:30:04.567Z,85
2017-07-30T04:30:45.453Z,85
2017-07-30T04:31:26.345Z,85
2017-07-30T04:32:07.246Z,80
2017-07-30T04:32:48.141Z,80
2017-07-30T04:33:29.023Z,85
2017-07-30T04:34:09.922Z,90
2017-07-30T04:34:50.815Z,90
2017-07-30T04:35:31.706Z,90
2017-07-30T04:36:12.587Z,90
2017-07-30T04:36:53.485Z,85
2017-07-30T04:37:34.377Z,80
2017-07-30T04:38:15.281Z,80
2017-07-30T04:38:56.165Z,80
2017-07-30T04:39:37.042Z,80
2017-07-30T04:40:17.937Z,75
2017-07-30T04:40:58.866Z,75
2017-07-30T04:41:39.757Z,75
2017-07-30T04:42:20.650Z,75
2017-07-30T04:43:01.551Z,75
2017-07-30T04:43:42.438Z,80
2017-07-30T04:44:23.320Z,80
2017-07-30T04:45:04.236Z,85
2017-07-30T04:45:45.147Z,90
2017-07-30T04:46:26.036Z,95
2017-07-30T04:47:06.931Z,100
2017-07-30T04:47:47.831Z,100
2017-07-30T04:48:28.716Z,100
2017-07-30T04:49:09.608Z,100
2017-07-30T04:49:50.505Z,100
2017-07-30T04:50:31.397Z,100
2017-07-30T04:51:12.310Z,95
2017-07-30T04:51:53.197Z,95
2017-07-30T04:52:34.084Z,90
2017-07-30T04:53:15.010Z,90
2017-07-30T04:53:55.900Z,90
2017-07-30T04:54:36.801Z,85
2017-07-30T04:55:17.680Z,80
2017-07-30T04:55:58.570Z,80
2017-07-30T04:56:39.469Z,80
2017-07-30T04:57:20.352Z,80
2017-07-30T04:58:01.239Z,85
2017-07-30T04:58:42.140Z,90
2017-07-30T04:59:23.031Z,90
2017-07-30T05:00:03.922Z,90
2017-07-30T05:00:44.819Z,95
2017-07-30T05:01:26.578Z,95
2017-07-30T05:02:07.479Z,95
2017-07-30T05:02:48.371Z,95
2017-07-30T05:03:29.273Z,100
2017-07-30T05:04:10.160Z,100
2017-07-30T05:04:51.049Z,100
2017-07-30T05:05:31.948Z,100
2017-07-30T05:06:12.841Z,100
2017-07-30T05:06:53.726Z,100
2017-07-30T05:07:34.622Z,100
2017-07-30T05:08:15.513Z,100
2017-07-30T05:08:56.405Z,100
2017-07-30T05:09:37.301Z,100
2017-07-30T05:10:18.189Z,100
2017-07-30T05:10:59.073Z,100
2017-07-30T05:11:39.954Z,105
2017-07-30T05:12:20.845Z,105
2017-07-30T05:13:01.730Z,105
2017-07-30T05:13:42.625Z,105
2017-07-30T05:14:23.522Z,105
2017-07-30T05:15:04.407Z,105
2017-07-30T05:15:45.308Z,110
2017-07-30T05:16:26.196Z,110
2017-07-30T05:17:07.101Z,110
2017-07-30T05:17:47.990Z,110
2017-07-30T05:18:28.870Z,110
2017-07-30T05:19:09.759Z,115
2017-07-30T05:19:50.650Z,115
2017-07-30T05:20:31.544Z,115
2017-07-30T05:21:12.429Z,115
2017-07-30T05:21:53.324Z,115
2017-07-30T05:22:34.219Z,120
2017-07-30T05:23:15.112Z,120
2017-07-30T05:23:55.998Z,120
2017-07-30T05:24:36.890Z,115
2017-07-30T05:25:17.785Z,115
2017-07-30T05:25:58.685Z,120
2017-07-30T05:26:39.577Z,120
2017-07-30T05:27:20.473Z,120
2017-07-30T05:28:01.366Z,120
2017-07-30T05:28:42.259Z,120
2017-07-30T05:29:23.159Z,120
2017-07-30T05:30:04.043Z,125
2017-07-30T05:30:44.936Z,125
2017-07-30T05:31:25.817Z,125
2017-07-30T05:32:06.717Z,125
2017-07-30T05:32:47.603Z,125
2017-07-30T05:33:28.513Z,125
2017-07-30T05:34:09.393Z,130
2017-07-30T05:34:50.277Z,130
2017-07-30T05:35:31.172Z,130
2017-07-30T05:36:12.070Z,130
2017-07-30T05:36:52.977Z,130
2017-07-30T05:37:33.868Z,130
2017-07-30T05:38:14.776Z,135
2017-07-30T05:38:55.661Z,135
2017-07-30T05:39:36.561Z,140
2017-07-30T05:40:17.561Z,140
2017-07-30T05:40:58.455Z,140
2017-07-30T05:41:39.342Z,140
2017-07-30T05:42:20.229Z,140
2017-07-30T05:43:01.121Z,140
2017-07-30T05:43:42.020Z,140
2017-07-30T05:44:22.905Z,140
2017-07-30T05:45:03.842Z,140
2017-07-30T05:45:44.767Z,145
2017-07-30T05:46:25.657Z,145
2017-07-30T05:47:06.959Z,145
2017-07-30T05:47:47.835Z,145
2017-07-30T05:48:28.731Z,145
2017-07-30T05:49:09.623Z,145
2017-07-30T05:49:50.518Z,150
2017-07-30T05:50:31.416Z,150
2017-07-30T05:51:12.300Z,150
2017-07-30T05:51:53.185Z,150
2017-07-30T05:52:34.077Z,150
2017-07-30T05:53:15.026Z,150
2017-07-30T05:53:55.938Z,150
2017-07-30T05:54:36.818Z,150
2017-07-30T05:55:17.719Z,150
2017-07-30T05:55:58.625Z,150
2017-07-30T05:56:39.520Z,155
2017-07-30T05:57:20.403Z,155
2017-07-30T05:58:01.299Z,155
2017-07-30T05:58:42.196Z,155
2017-07-30T05:59:23.092Z,160
2017-07-30T06:00:03.982Z,160
2017-07-30T06:00:44.871Z,160
2017-07-30T06:01:25.767Z,160
2017-07-30T06:02:06.652Z,160
2017-07-30T06:02:47.550Z,165
2017-07-30T06:03:28.442Z,165
2017-07-30T06:04:09.340Z,165
2017-07-30T06:04:50.228Z,165
2017-07-30T06:05:31.129Z,170
2017-07-30T06:06:12.019Z,170
2017-07-30T06:06:52.917Z,170
2017-07-30T06:07:33.804Z,170
2017-07-30T06:08:14.699Z,175
2017-07-30T06:08:55.596Z,175
2017-07-30T06:09:36.481Z,175
2017-07-30T06:10:17.367Z,180
2017-07-30T06:10:58.271Z,180
2017-07-30T06:11:39.154Z,180
2017-07-30T06:12:20.045Z,185
2017-07-30T06:13:00.944Z,185
2017-07-30T06:13:41.827Z,190
2017-07-30T06:14:22.718Z,190
2017-07-30T06:15:03.620Z,195
2017-07-30T06:15:44.512Z,195
2017-07-30T06:16:25.404Z,200
2017-07-30T06:17:06.306Z,205
2017-07-30T06:17:47.216Z,210
2017-07-30T06:18:28.131Z,210
2017-07-30T06:19:09.016Z,210
2017-07-30T06:19:49.915Z,215
2017-07-30T06:20:30.809Z,220
2017-07-30T06:21:11.705Z,225
2017-07-30T06:21:52.607Z,230
2017-07-30T06:22:33.506Z,235
2017-07-30T06:23:14.400Z,240
2017-07-30T06:23:55.302Z,250
2017-07-30T06:24:36.199Z,255
2017-07-30T06:25:17.100Z,255
2017-07-30T06:25:57.995Z,265
2017-07-30T06:26:38.892Z,275
2017-07-30T06:27:19.795Z,285
2017-07-30T06:28:00.683Z,295
2017-07-30T06:28:41.577Z,295
2017-07-30T06:29:22.483Z,305
2017-07-30T06:30:03.368Z,315
2017-07-30T06:30:44.269Z,320
2017-07-30T06:31:25.170Z,330
2017-07-30T06:32:06.065Z,330
2017-07-30T06:32:46.969Z,335
2017-07-30T06:33:27.862Z,345
2017-07-30T06:34:08.747Z,450
2017-07-30T06:34:49.653Z,910
2017-07-30T06:35:30.549Z,1600
2017-07-30T06:36:11.430Z,2110
2017-07-30T06:36:52.317Z,2205
2017-07-30T06:37:33.215Z,2160
2017-07-30T06:38:14.097Z,2140
2017-07-30T06:38:54.972Z,2130
2017-07-30T06:39:35.836Z,2170
2017-07-30T06:40:16.701Z,2190
2017-07-30T06:40:57.592Z,2195
2017-07-30T06:41:38.483Z,2225
2017-07-30T06:42:19.361Z,2265
2017-07-30T06:43:00.233Z,2255
2017-07-30T06:43:41.124Z,2270
2017-07-30T06:44:22.015Z,2235
2017-07-30T06:45:02.894Z,2195
2017-07-30T06:45:43.788Z,2175
2017-07-30T06:46:24.677Z,2175
2017-07-30T06:47:05.724Z,2180
2017-07-30T06:47:46.617Z,2195
2017-07-30T06:48:27.498Z,2190
2017-07-30T06:49:08.360Z,2165
2017-07-30T06:49:49.249Z,2115
2017-07-30T06:50:30.146Z,2055
2017-07-30T06:52:49.496Z,2025
2017-07-30T06:53:30.445Z,2025
2017-07-30T06:54:11.328Z,1985
2017-07-30T06:54:52.199Z,1985
2017-07-30T06:55:33.102Z,1950
2017-07-30T06:56:13.996Z,1955
2017-07-30T06:56:54.899Z,1965
2017-07-30T06:57:35.811Z,2015
2017-07-30T06:58:16.729Z,2100
2017-07-30T06:58:57.640Z,2220
2017-07-30T06:59:38.550Z,2265
2017-07-30T07:00:19.449Z,2255
2017-07-30T07:01:00.337Z,2235
2017-07-30T07:01:41.221Z,2170
2017-07-30T07:02:22.120Z,2120
2017-07-30T07:03:03.011Z,2030
2017-07-30T07:03:43.911Z,2015
2017-07-30T07:04:24.814Z,2000
2017-07-30T07:05:05.694Z,2040
2017-07-30T07:05:46.593Z,2100
2017-07-30T07:06:27.485Z,2080
2017-07-30T07:07:08.377Z,1730
2017-07-30T07:07:49.306Z,1355
2017-07-30T07:08:30.211Z,1285
2017-07-30T07:09:11.105Z,1600
2017-07-30T07:09:51.993Z,1985
2017-07-30T07:10:32.911Z,2240
2017-07-30T07:11:13.801Z,2305
2017-07-30T07:11:54.723Z,2300
2017-07-30T07:12:35.620Z,2250
2017-07-30T07:13:16.498Z,2200
2017-07-30T07:13:57.389Z,2255
2017-07-30T07:14:38.272Z,2345
2017-07-30T07:15:19.168Z,2445
2017-07-30T07:16:00.082Z,2495
2017-07-30T07:16:41.002Z,2415
2017-07-30T07:17:21.908Z,2360
2017-07-30T07:18:02.831Z,2365
2017-07-30T07:18:43.745Z,2340
2017-07-30T07:19:24.631Z,2335
2017-07-30T07:20:05.564Z,2300
2017-07-30T07:20:46.445Z,2270
2017-07-30T07:21:27.341Z,2180
2017-07-30T07:22:08.244Z,2150
2017-07-30T07:22:49.159Z,2145
2017-07-30T07:23:30.059Z,2190
2017-07-30T07:24:10.954Z,2235
2017-07-30T07:24:51.858Z,2250
2017-07-30T07:25:32.751Z,2180
2017-07-30T07:26:13.652Z,2075
2017-07-30T07:26:54.551Z,2060
2017-07-30T07:27:35.451Z,2120
2017-07-30T07:28:16.348Z,2220
2017-07-30T07:28:57.248Z,2310
2017-07-30T07:29:38.140Z,2355
2017-07-30T07:30:19.027Z,2350
2017-07-30T07:30:59.916Z,2255
2017-07-30T07:31:40.828Z,2140
2017-07-30T07:32:21.729Z,1990
2017-07-30T07:33:02.612Z,1850
2017-07-30T07:33:43.498Z,1740
2017-07-30T07:34:24.412Z,1700
2017-07-30T07:35:05.306Z,1700
2017-07-30T07:35:46.207Z,1740
2017-07-30T07:36:27.087Z,1845
2017-07-30T07:37:07.996Z,1950
2017-07-30T07:37:48.888Z,2080
2017-07-30T07:38:29.784Z,2140
2017-07-30T07:39:10.686Z,2220
2017-07-30T07:39:51.591Z,2230
2017-07-30T07:40:32.489Z,2215
2017-07-30T07:41:13.385Z,2015
2017-07-30T07:41:54.300Z,1855
2017-07-30T07:42:35.205Z,1750
2017-07-30T07:43:16.101Z,1675
2017-07-30T07:43:56.994Z,1705
2017-07-30T07:44:37.916Z,1645
2017-07-30T07:45:18.814Z,1420
2017-07-30T07:45:59.707Z,1035
2017-07-30T07:46:40.619Z,655
2017-07-30T07:47:21.525Z,535
2017-07-30T07:48:02.427Z,490
2017-07-30T07:48:43.331Z,480
2017-07-30T07:49:24.251Z,470
2017-07-30T07:50:05.137Z,465
2017-07-30T07:50:46.040Z,460
2017-07-30T07:51:26.969Z,455
2017-07-30T07:52:07.865Z,455
2017-07-30T07:52:48.762Z,455
2017-07-30T07:53:29.661Z,455
2017-07-30T07:54:10.569Z,455
2017-07-30T07:54:51.458Z,455
2017-07-30T07:55:32.358Z,455
2017-07-30T07:56:13.259Z,455
2017-07-30T07:56:54.156Z,455
2017-07-30T07:57:35.057Z,455
2017-07-30T07:58:15.952Z,460
2017-07-30T07:58:56.877Z,460
2017-07-30T07:59:37.771Z,460
2017-07-30T08:01:31.448Z,465
2017-07-30T08:02:12.351Z,470
2017-07-30T08:02:53.257Z,480
2017-07-30T08:03:34.141Z,485
2017-07-30T08:04:15.077Z,480
2017-07-30T08:04:55.976Z,490
2017-07-30T08:05:36.868Z,495
2017-07-30T08:06:17.755Z,505
2017-07-30T08:06:58.656Z,520
2017-07-30T08:07:39.576Z,555
2017-07-30T08:08:20.486Z,665
2017-07-30T08:09:01.393Z,995
2017-07-30T08:09:42.307Z,1640
2017-07-30T08:10:23.209Z,2300
2017-07-30T08:11:04.105Z,2735
2017-07-30T08:11:45.004Z,2890
2017-07-30T08:12:25.906Z,2910
2017-07-30T08:13:06.808Z,2890
2017-07-30T08:13:47.707Z,2890
2017-07-30T08:14:28.610Z,2910
2017-07-30T08:15:09.522Z,2945
2017-07-30T08:15:50.473Z,2920
2017-07-30T08:16:31.387Z,2895
2017-07-30T08:17:12.319Z,2850
2017-07-30T08:17:53.283Z,2835
2017-07-30T08:18:34.246Z,2825
2017-07-30T08:19:15.154Z,2580
2017-07-30T08:19:56.059Z,2475
2017-07-30T08:20:36.963Z,2520
2017-07-30T08:21:17.875Z,2760
2017-07-30T08:21:58.786Z,2935
2017-07-30T08:22:39.689Z,2925
2017-07-30T08:23:20.586Z,2905
2017-07-30T08:24:01.484Z,2650
2017-07-30T08:25:55.215Z,2635
2017-07-30T08:26:36.111Z,2940
2017-07-30T08:27:17.017Z,3020
2017-07-30T08:27:57.919Z,3035
2017-07-30T08:28:38.842Z,3025
2017-07-30T08:29:19.746Z,2985
2017-07-30T08:30:00.669Z,2935
2017-07-30T08:30:41.581Z,2895
2017-07-30T08:31:22.488Z,2905
2017-07-30T08:32:03.404Z,2925
2017-07-30T08:32:44.351Z,2925
2017-07-30T08:33:25.256Z,2940
2017-07-30T08:34:06.176Z,2945
2017-07-30T08:34:47.071Z,2965
2017-07-30T08:35:27.996Z,2955
2017-07-30T08:36:08.898Z,2970
2017-07-30T08:36:49.834Z,2975
2017-07-30T08:37:30.750Z,2980
2017-07-30T08:38:11.695Z,2995
2017-07-30T08:38:52.607Z,3010
2017-07-30T08:39:33.534Z,3035
2017-07-30T08:40:14.445Z,3075
2017-07-30T08:40:55.358Z,3090
2017-07-30T08:41:36.265Z,3160
2017-07-30T08:43:45.530Z,2725
2017-07-30T08:44:26.443Z,2840
2017-07-30T08:45:07.359Z,3025
2017-07-30T08:45:48.269Z,3260
2017-07-30T08:46:29.183Z,3210
2017-07-30T08:47:10.094Z,3145
2017-07-30T08:47:50.996Z,3025
2017-07-30T08:48:31.896Z,3015
2017-07-30T08:49:12.813Z,2950
2017-07-30T08:49:53.730Z,2465
2017-07-30T08:50:34.639Z,2095
2017-07-30T08:51:15.550Z,2460
2017-07-30T08:51:56.465Z,2890
2017-07-30T08:52:37.384Z,2945
2017-07-30T08:53:18.301Z,2955
2017-07-30T08:53:59.232Z,2940
2017-07-30T08:54:40.144Z,2420
2017-07-30T08:55:21.069Z,2440
2017-07-30T08:56:01.967Z,2405
2017-07-30T08:56:42.870Z,2350
2017-07-30T08:57:23.765Z,2570
2017-07-30T08:58:04.696Z,2635
2017-07-30T08:58:45.609Z,2450
2017-07-30T08:59:26.525Z,2490
2017-07-30T09:00:07.429Z,2650
2017-07-30T09:00:48.323Z,2710
2017-07-30T09:01:29.218Z,3130
2017-07-30T09:02:10.132Z,3330
2017-07-30T09:02:51.045Z,3285
2017-07-30T09:03:31.946Z,2995
2017-07-30T09:04:12.829Z,2620
2017-07-30T09:04:53.732Z,2565
2017-07-30T09:05:34.622Z,2145
2017-07-30T09:06:15.516Z,2360
2017-07-30T09:06:56.405Z,2665
2017-07-30T09:07:37.311Z,2965
2017-07-30T09:08:18.198Z,2845
2017-07-30T09:08:59.100Z,2915
2017-07-30T09:09:40.003Z,3085
2017-07-30T09:10:20.916Z,3150
2017-07-30T09:11:01.819Z,3195
2017-07-30T09:11:42.710Z,3210
2017-07-30T09:12:23.614Z,3235
2017-07-30T09:13:04.516Z,3245
2017-07-30T09:13:45.431Z,3225
2017-07-30T09:14:26.328Z,3225
2017-07-30T09:15:07.244Z,3195
2017-07-30T09:15:48.184Z,3150
2017-07-30T09:18:02.431Z,2870
2017-07-30T09:18:43.339Z,3115
2017-07-30T09:19:24.242Z,3135
2017-07-30T09:20:05.187Z,3270
2017-07-30T09:20:46.047Z,3185
2017-07-30T09:21:26.951Z,3060
2017-07-30T09:22:07.865Z,3005
2017-07-30T09:22:48.767Z,2935
2017-07-30T09:23:29.679Z,2975
2017-07-30T09:24:10.597Z,3000
2017-07-30T09:24:51.499Z,2965
2017-07-30T09:25:32.412Z,2770
2017-07-30T09:26:13.297Z,3125
2017-07-30T09:26:54.233Z,3270
2017-07-30T09:27:35.144Z,3330
2017-07-30T09:28:16.053Z,3375
2017-07-30T09:28:57.000Z,3370
2017-07-30T09:29:37.884Z,3330
2017-07-30T09:30:18.798Z,3305
2017-07-30T09:30:59.703Z,3260
2017-07-30T09:31:40.610Z,2875
2017-07-30T09:32:21.511Z,3090
2017-07-30T09:33:02.437Z,3375
2017-07-30T09:33:43.339Z,3565
2017-07-30T09:34:24.252Z,3390
2017-07-30T09:35:05.159Z,3360
2017-07-30T09:35:46.071Z,3425
2017-07-30T09:36:26.991Z,3370
2017-07-30T09:37:07.891Z,3435
2017-07-30T09:37:48.797Z,3255
2017-07-30T09:38:29.706Z,3410
2017-07-30T09:39:10.605Z,3360
2017-07-30T09:39:51.503Z,3295
2017-07-30T09:40:32.406Z,3035
2017-07-30T09:41:13.319Z,2395
2017-07-30T09:41:54.223Z,2130
2017-07-30T09:42:35.132Z,2790
2017-07-30T09:43:16.039Z,2920
2017-07-30T09:43:56.949Z,2360
2017-07-30T09:44:37.861Z,2305
2017-07-30T09:45:18.762Z,2860